Meteghan, Canada
Current Conditions -  °F | °C
As of 9:41 AM on Saturday 20 Dec 2014 (Local Time) from CYQI Reporting Station
Overcast Overcast  
Wind Chill: 17°   Ceiling: 1500
Heat Index: 28°   Visibility: 15mi
Dew Point: 25°   Wind: 15mph
Humidity: 86%   Direction: 70°ENE
Pressure: 30.23"   Gusts: 22mph
Location:  44.18°N, 66.15°W
Report Text: CYQI 201341Z 07013G19KT 15SM OVC015 M02/M04 A3023 RMK SC8 SLP239
Loading
Personal Weather Stations






























Interactive Weather Map New forecast layout! Learn more

10-Day Weather Forecast

Advertisements
Track Severe Weather on mobile